Time;durP1;ratioP1;P1;durP2;ratioP2;P2;SDS_P1;SDS_P2;PMS_P1;PMS_P2;Temp;Humidity;BMP_temperature;BMP_pressure;BME280_temperature;BME280_humidity;BME280_pressure;Samples;Min_cycle;Max_cycle;Signal;HPM_P1;HPM_P2
2023/02/19 00:01:15;;;;;;;29.00;20.42;;;9.50;99.90;;;;;;4914253;29;20039;-81
2023/02/19 00:03:46;;;;;;;32.08;21.60;;;9.30;99.90;;;;;;4939899;29;20047;-81
2023/02/19 00:06:12;;;;;;;31.67;20.52;;;9.70;99.90;;;;;;4912563;29;20051;-81
2023/02/19 00:08:38;;;;;;;28.33;19.08;;;9.40;99.90;;;;;;4928320;28;20050;-81
2023/02/19 00:11:07;;;;;;;25.60;19.17;;;9.30;99.90;;;;;;4919757;29;20047;-81
2023/02/19 00:13:37;;;;;;;27.60;19.27;;;9.30;99.90;;;;;;4912772;28;21051;-82
2023/02/19 00:16:14;;;;;;;25.60;18.85;;;8.90;99.90;;;;;;4929239;28;20126;-81
2023/02/19 00:18:41;;;;;;;30.90;18.92;;;10.10;99.90;;;;;;4926636;28;20050;-81
2023/02/19 00:21:07;;;;;;;25.77;20.02;;;10.30;99.90;;;;;;4947537;28;20375;-81
2023/02/19 00:23:33;;;;;;;29.75;20.55;;;9.50;99.90;;;;;;4936734;29;20075;-82
2023/02/19 00:26:10;;;;;;;31.35;19.95;;;9.50;99.90;;;;;;4939910;29;20508;-81
2023/02/19 00:28:39;;;;;;;29.40;20.85;;;9.30;99.90;;;;;;4936913;29;20051;-81
2023/02/19 00:31:11;;;;;;;31.58;20.17;;;9.50;99.90;;;;;;4939754;29;20050;-82
2023/02/19 00:33:37;;;;;;;30.75;20.55;;;9.30;99.90;;;;;;4950911;28;20126;-81
2023/02/19 00:36:04;;;;;;;34.38;21.40;;;9.30;99.90;;;;;;4937227;29;20437;-82
2023/02/19 00:38:31;;;;;;;28.95;22.08;;;9.30;99.90;;;;;;4919463;29;20039;-82
2023/02/19 00:41:00;;;;;;;32.20;21.17;;;9.50;99.90;;;;;;4925049;29;20445;-81
2023/02/19 00:43:26;;;;;;;38.55;21.92;;;9.30;99.90;;;;;;4940651;29;20049;-81
2023/02/19 00:45:52;;;;;;;37.08;21.15;;;9.40;99.90;;;;;;4922536;29;20078;-81
2023/02/19 00:48:18;;;;;;;28.13;20.50;;;9.60;99.90;;;;;;4936870;29;20082;-81
2023/02/19 00:50:44;;;;;;;30.70;21.08;;;9.30;99.90;;;;;;4939397;29;20047;-81
2023/02/19 00:53:10;;;;;;;29.83;20.35;;;9.50;99.90;;;;;;4950638;28;20051;-81
2023/02/19 00:55:37;;;;;;;36.28;20.52;;;9.70;99.90;;;;;;4932645;29;20391;-81
2023/02/19 00:58:03;;;;;;;34.72;20.25;;;9.30;99.90;;;;;;4949073;28;20046;-81
2023/02/19 01:00:29;;;;;;;27.92;19.00;;;9.40;99.90;;;;;;4929556;28;20027;-81
2023/02/19 01:02:54;;;;;;;32.28;18.85;;;9.20;99.90;;;;;;4928487;28;20121;-81
2023/02/19 01:05:20;;;;;;;24.35;16.85;;;9.50;99.90;;;;;;4929457;28;20039;-82
2023/02/19 01:07:46;;;;;;;27.58;16.38;;;9.20;99.90;;;;;;4912980;28;20075;-82
2023/02/19 01:10:12;;;;;;;33.83;16.98;;;9.20;99.90;;;;;;4914354;29;20510;-81
2023/02/19 01:12:38;;;;;;;29.10;16.35;;;9.10;99.90;;;;;;4931147;28;20413;-81
2023/02/19 01:15:04;;;;;;;29.65;17.08;;;9.60;99.90;;;;;;4927414;28;20101;-81
2023/02/19 01:17:30;;;;;;;30.85;16.70;;;9.20;99.90;;;;;;4917048;28;20052;-81
2023/02/19 01:19:56;;;;;;;34.70;18.27;;;9.20;99.90;;;;;;4911214;29;20063;-81
2023/02/19 01:22:22;;;;;;;30.73;16.85;;;9.50;99.90;;;;;;4927261;29;20052;-81
2023/02/19 01:24:50;;;;;;;28.10;16.02;;;9.90;99.90;;;;;;4943199;28;20046;-81
2023/02/19 01:27:15;;;;;;;29.63;15.77;;;9.10;99.90;;;;;;4929664;28;20053;-81
2023/02/19 01:29:42;;;;;;;28.50;15.35;;;9.40;99.90;;;;;;4926989;28;20047;-81
2023/02/19 01:32:08;;;;;;;30.23;14.23;;;9.10;99.90;;;;;;4944163;28;20043;-81
2023/02/19 01:34:34;;;;;;;22.60;14.10;;;9.10;99.90;;;;;;4925362;29;20516;-82
2023/02/19 01:37:03;;;;;;;28.60;15.30;;;9.10;99.90;;;;;;4907377;28;20135;-81
2023/02/19 01:39:29;;;;;;;25.52;13.73;;;9.30;99.90;;;;;;4928311;29;20094;-81
2023/02/19 01:41:55;;;;;;;23.10;12.38;;;9.10;99.90;;;;;;4925665;28;20043;-82
2023/02/19 01:44:20;;;;;;;24.13;11.98;;;9.40;99.90;;;;;;4916202;29;20050;-81
2023/02/19 01:46:47;;;;;;;23.98;13.18;;;9.10;99.90;;;;;;4929521;29;20081;-81
2023/02/19 01:49:27;;;;;;;22.42;11.38;;;9.40;99.90;;;;;;4952501;28;20126;-81
2023/02/19 01:51:58;;;;;;;18.25;10.38;;;9.10;99.90;;;;;;4926185;28;20047;-81
2023/02/19 01:54:27;;;;;;;19.42;9.55;;;9.10;99.90;;;;;;4907723;28;20086;-82
2023/02/19 01:56:54;;;;;;;17.52;10.10;;;9.80;99.90;;;;;;4934713;29;20118;-81
2023/02/19 01:59:21;;;;;;;17.60;9.10;;;9.00;99.90;;;;;;4915470;28;20132;-81
2023/02/19 02:01:48;;;;;;;22.02;9.73;;;9.10;99.90;;;;;;4923842;28;20040;-81
2023/02/19 02:04:15;;;;;;;18.60;9.10;;;9.30;99.90;;;;;;4908141;28;20249;-81
2023/02/19 02:06:48;;;;;;;15.98;7.72;;;9.50;99.90;;;;;;4911795;28;20050;-81
2023/02/19 02:12:01;;;;;;;17.95;7.50;;;9.20;99.90;;;;;;4930672;28;20069;-81
2023/02/19 02:14:31;;;;;;;19.02;7.82;;;9.00;99.90;;;;;;4929162;29;20043;-81
2023/02/19 02:17:24;;;;;;;15.40;5.95;;;9.20;99.90;;;;;;4941148;28;20051;-81
2023/02/19 02:20:30;;;;;;;22.15;7.15;;;9.80;99.90;;;;;;4909295;28;20174;-82
2023/02/19 02:23:10;;;;;;;14.30;5.95;;;8.90;99.90;;;;;;4919704;29;20090;-81
2023/02/19 02:26:01;;;;;;;17.00;7.07;;;8.90;99.90;;;;;;4937207;29;20038;-81
2023/02/19 02:28:59;;;;;;;18.80;6.38;;;8.90;99.90;;;;;;4933516;29;20043;-82
2023/02/19 02:31:34;;;;;;;12.90;5.88;;;8.90;99.90;;;;;;4918999;29;20043;-81
2023/02/19 02:34:16;;;;;;;11.23;5.82;;;9.20;99.90;;;;;;4918580;29;20580;-81
2023/02/19 02:36:46;;;;;;;15.18;6.10;;;9.60;99.90;;;;;;4919645;29;20553;-81
2023/02/19 02:39:16;;;;;;;12.65;5.82;;;9.30;99.90;;;;;;4934281;29;20046;-81
2023/02/19 02:42:26;;;;;;;15.40;5.80;;;8.90;99.90;;;;;;4925982;29;20031;-81
2023/02/19 02:44:39;;;;;;;11.23;6.45;;;8.90;99.90;;;;;;4933902;28;20532;-81
2023/02/19 02:47:39;;;;;;;15.88;6.25;;;9.10;99.90;;;;;;4936090;29;20533;-81
2023/02/19 02:50:03;;;;;;;12.73;6.75;;;9.10;99.90;;;;;;4952096;28;20042;-81
2023/02/19 02:55:17;;;;;;;14.75;7.65;;;9.20;99.90;;;;;;4941859;28;20074;-81
2023/02/19 02:57:43;;;;;;;18.23;7.85;;;8.80;99.90;;;;;;4922141;28;20054;-82
2023/02/19 03:00:10;;;;;;;20.55;8.85;;;8.90;99.90;;;;;;4911244;28;20047;-81
2023/02/19 03:02:37;;;;;;;15.82;7.75;;;8.80;99.90;;;;;;4926058;28;20511;-81
2023/02/19 03:08:12;;;;;;;19.35;8.45;;;8.80;99.90;;;;;;4924656;28;20058;-82
2023/02/19 03:10:43;;;;;;;17.35;8.93;;;8.80;99.90;;;;;;4910736;29;20047;-81
2023/02/19 03:19:18;;;;;;;17.37;9.00;;;8.80;99.90;;;;;;4923425;28;20086;-82
2023/02/19 03:21:51;;;;;;;24.17;10.35;;;8.10;99.90;;;;;;4912510;28;20377;-82
2023/02/19 03:27:06;;;;;;;16.70;8.57;;;8.90;99.90;;;;;;4940650;28;20102;-81
2023/02/19 03:29:35;;;;;;;19.92;9.07;;;9.10;99.90;;;;;;4924752;28;20058;-81
2023/02/19 03:32:07;;;;;;;16.02;8.35;;;9.10;99.90;;;;;;4937028;28;20043;-82
2023/02/19 03:34:41;;;;;;;19.48;10.35;;;9.60;99.90;;;;;;4924009;28;20922;-82
2023/02/19 03:37:24;;;;;;;22.52;10.10;;;9.50;99.90;;;;;;4925238;28;20055;-82
2023/02/19 03:39:51;;;;;;;27.08;11.90;;;8.70;99.90;;;;;;4927992;28;20054;-82
2023/02/19 03:42:28;;;;;;;21.00;11.90;;;9.30;99.90;;;;;;4911005;28;20032;-82
2023/02/19 03:45:23;;;;;;;24.45;11.43;;;8.70;99.90;;;;;;4910339;29;20513;-82
2023/02/19 03:47:53;;;;;;;23.40;11.35;;;8.70;99.90;;;;;;4927110;28;20039;-82
2023/02/19 03:50:29;;;;;;;17.90;9.93;;;8.90;99.90;;;;;;4943323;28;20045;-81
2023/02/19 03:53:05;;;;;;;24.95;10.43;;;8.60;99.90;;;;;;4918193;29;20585;-82
2023/02/19 03:55:36;;;;;;;22.40;10.77;;;8.80;99.90;;;;;;4928096;29;20081;-82
2023/02/19 03:58:12;;;;;;;23.02;11.43;;;8.70;99.90;;;;;;4924823;28;20040;-82
2023/02/19 04:00:56;;;;;;;21.00;11.15;;;8.90;99.90;;;;;;4927471;28;20043;-82
2023/02/19 04:03:24;;;;;;;18.73;12.00;;;8.60;99.90;;;;;;4924716;28;20046;-82
2023/02/19 04:05:55;;;;;;;20.83;11.40;;;8.80;99.90;;;;;;4910417;28;20066;-82
2023/02/19 04:08:25;;;;;;;20.02;11.57;;;8.60;99.90;;;;;;4924363;28;20498;-81
2023/02/19 04:10:53;;;;;;;6.93;4.43;;;8.90;99.90;;;;;;4927972;29;20042;-81
2023/02/19 04:13:29;;;;;;;6.88;4.13;;;8.50;99.90;;;;;;4908628;28;20177;-81
2023/02/19 04:16:00;;;;;;;6.05;4.20;;;8.50;99.90;;;;;;4939353;28;20042;-81
2023/02/19 04:18:32;;;;;;;5.53;4.00;;;8.40;99.90;;;;;;4923523;29;20043;-81
2023/02/19 04:21:01;;;;;;;4.63;3.45;;;8.40;99.90;;;;;;4925353;28;20039;-81
2023/02/19 04:23:32;;;;;;;4.55;3.80;;;8.30;99.90;;;;;;4916666;29;20090;-81
2023/02/19 04:26:00;;;;;;;5.70;3.90;;;8.40;99.90;;;;;;4934690;29;20126;-81
2023/02/19 04:28:29;;;;;;;4.80;3.80;;;9.00;99.90;;;;;;4918215;28;20046;-81
2023/02/19 04:30:55;;;;;;;3.28;2.90;;;8.80;99.90;;;;;;4917352;29;20040;-81
2023/02/19 04:33:21;;;;;;;3.42;3.03;;;8.00;99.90;;;;;;4920682;29;20039;-81
2023/02/19 04:35:47;;;;;;;2.97;2.70;;;8.00;99.90;;;;;;4915281;29;20150;-81
2023/02/19 04:38:13;;;;;;;4.35;3.50;;;8.60;99.90;;;;;;4933523;29;20134;-80
2023/02/19 04:40:39;;;;;;;3.78;2.90;;;7.90;99.90;;;;;;4916955;29;20059;-81
2023/02/19 04:43:08;;;;;;;3.17;2.88;;;7.90;99.90;;;;;;4917994;29;20099;-82
2023/02/19 04:45:36;;;;;;;3.08;2.85;;;7.70;99.90;;;;;;4937631;28;20047;-82
2023/02/19 04:48:03;;;;;;;5.88;3.33;;;7.90;99.90;;;;;;4938079;29;20043;-82
2023/02/19 04:50:29;;;;;;;2.28;2.08;;;7.90;99.90;;;;;;4919036;29;20047;-82
2023/02/19 04:52:55;;;;;;;2.60;2.40;;;7.60;99.90;;;;;;4929110;28;20090;-82
2023/02/19 04:55:24;;;;;;;3.10;2.53;;;8.50;99.90;;;;;;4930642;29;20385;-82
2023/02/19 04:57:50;;;;;;;2.67;2.30;;;7.80;99.90;;;;;;4926474;29;20528;-82
2023/02/19 05:00:16;;;;;;;2.78;2.47;;;7.40;99.90;;;;;;4926030;29;20090;-82
2023/02/19 05:02:42;;;;;;;3.08;2.20;;;7.40;99.90;;;;;;4911164;28;21135;-82
2023/02/19 05:05:08;;;;;;;3.22;2.67;;;7.80;99.90;;;;;;4910308;28;20502;-82
2023/02/19 05:07:34;;;;;;;5.07;2.95;;;7.90;99.90;;;;;;4913173;28;20071;-82
2023/02/19 05:10:00;;;;;;;2.95;2.13;;;6.80;99.90;;;;;;4928109;29;20043;-82
2023/02/19 05:12:30;;;;;;;2.47;1.83;;;7.40;99.90;;;;;;4914186;28;20131;-81
2023/02/19 05:14:56;;;;;;;2.63;2.10;;;7.30;99.90;;;;;;4928070;28;20031;-82
2023/02/19 05:17:23;;;;;;;2.25;1.67;;;7.20;99.90;;;;;;4921578;29;20573;-83
2023/02/19 05:19:48;;;;;;;1.90;1.70;;;7.10;99.90;;;;;;4921432;29;20441;-83
2023/02/19 05:22:14;;;;;;;2.17;1.85;;;7.50;99.90;;;;;;4932384;29;20043;-82
2023/02/19 05:24:43;;;;;;;3.03;1.63;;;7.10;99.90;;;;;;4928604;29;20123;-82
2023/02/19 05:27:10;;;;;;;2.50;2.03;;;7.50;99.90;;;;;;4945663;28;20061;-82
2023/02/19 05:29:36;;;;;;;2.53;1.85;;;7.70;99.90;;;;;;4911748;28;20039;-82
2023/02/19 05:32:02;;;;;;;2.15;1.92;;;7.20;99.90;;;;;;4930182;28;20058;-82
2023/02/19 05:34:27;;;;;;;2.78;2.22;;;7.40;99.90;;;;;;4931796;28;20039;-80
2023/02/19 05:36:53;;;;;;;1.77;1.67;;;7.60;99.90;;;;;;4920794;28;20046;-81
2023/02/19 05:39:19;;;;;;;2.00;1.90;;;7.00;99.90;;;;;;4914220;28;20050;-80
2023/02/19 05:41:44;;;;;;;4.18;2.25;;;7.50;99.90;;;;;;4943241;28;20694;-81
2023/02/19 05:44:10;;;;;;;2.78;2.25;;;7.40;99.90;;;;;;4926882;29;20050;-81
2023/02/19 05:46:36;;;;;;;2.45;2.20;;;6.90;99.90;;;;;;4931351;28;20047;-80
2023/02/19 05:49:03;;;;;;;2.80;2.05;;;6.80;99.90;;;;;;4907198;28;20051;-81
2023/02/19 05:52:04;;;;;;;3.58;3.10;;;7.30;99.90;;;;;;4923158;29;20051;-83
2023/02/19 05:55:06;;;;;;;3.17;2.78;;;6.70;99.90;;;;;;4933280;28;20042;-82
2023/02/19 06:05:16;;;;;;;4.50;4.00;;;6.30;99.90;;;;;;4916250;28;20544;-81
2023/02/19 06:10:58;;;;;;;4.85;4.35;;;7.30;99.90;;;;;;4928780;28;20409;-85
2023/02/19 06:13:32;;;;;;;5.55;4.40;;;7.10;99.90;;;;;;4929509;28;20046;-83
2023/02/19 06:18:53;;;;;;;4.97;4.10;;;6.60;99.90;;;;;;5024088;23;20081;-82
2023/02/19 06:21:38;;;;;;;5.90;4.13;;;7.10;99.90;;;;;;4987342;28;20053;-83
2023/02/19 06:24:08;;;;;;;4.60;4.18;;;6.60;99.90;;;;;;4975471;28;20126;-83
2023/02/19 06:27:20;;;;;;;4.38;3.97;;;6.60;99.90;;;;;;4974490;28;20068;-82
2023/02/19 06:29:49;;;;;;;4.22;3.83;;;6.60;99.90;;;;;;4973321;28;20050;-78
2023/02/19 06:32:15;;;;;;;5.20;4.35;;;6.90;99.90;;;;;;4968802;28;20091;-83
2023/02/19 06:34:44;;;;;;;5.63;4.72;;;6.90;99.90;;;;;;4977673;28;20057;-83
2023/02/19 06:37:10;;;;;;;4.97;4.43;;;6.60;99.90;;;;;;4983281;28;20046;-82
2023/02/19 06:39:42;;;;;;;4.35;3.95;;;6.80;99.90;;;;;;4964189;28;20053;-83
